Time;durP1;ratioP1;P1;durP2;ratioP2;P2;SDS_P1;SDS_P2;PMS_P1;PMS_P2;Temp;Humidity;BMP_temperature;BMP_pressure;BME280_temperature;BME280_humidity;BME280_pressure;Samples;Min_cycle;Max_cycle;Signal;HPM_P1;HPM_P2
2023/10/11 00:00:39;;;;;;;;;18.67;17.00;;;;;20.88;50.41;101392.72;5036237;28;46134;-66
2023/10/11 00:03:17;;;;;;;;;18.67;17.67;;;;;20.82;50.18;101396.44;5036182;28;45423;-66
2023/10/11 00:05:45;;;;;;;;;17.00;16.67;;;;;20.81;50.24;101396.47;5036163;28;45463;-66
2023/10/11 00:08:16;;;;;;;;;21.33;15.67;;;;;20.77;50.15;101395.72;5036421;28;45543;-66
2023/10/11 00:10:49;;;;;;;;;19.00;18.33;;;;;20.75;50.34;101385.09;5035789;28;45468;-65
2023/10/11 00:13:15;;;;;;;;;25.33;18.33;;;;;20.83;50.43;101397.31;5034278;28;45519;-65
2023/10/11 00:15:49;;;;;;;;;23.67;20.33;;;;;20.62;50.62;101389.06;5036075;28;45437;-66
2023/10/11 00:18:19;;;;;;;;;24.67;19.67;;;;;20.71;50.87;101407.41;5036632;28;45479;-65
2023/10/11 00:23:11;;;;;;;;;20.00;18.33;;;;;20.59;51.24;101402.44;5041128;28;45447;-65
2023/10/11 00:25:39;;;;;;;;;27.00;21.67;;;;;20.55;51.51;101408.75;5040567;28;45511;-66
2023/10/11 00:28:08;;;;;;;;;21.67;19.67;;;;;20.52;51.34;101417.72;5040005;28;45361;-66
2023/10/11 00:30:38;;;;;;;;;25.67;18.67;;;;;20.52;51.27;101400.84;5039636;28;46166;-65
2023/10/11 00:33:04;;;;;;;;;22.33;17.67;;;;;20.51;51.36;101393.78;5039447;28;45403;-66
2023/10/11 00:35:32;;;;;;;;;17.00;15.33;;;;;20.58;51.51;101408.69;5039895;28;45564;-66
2023/10/11 00:38:00;;;;;;;;;20.00;13.33;;;;;20.58;51.21;101413.16;5040453;28;45465;-66
2023/10/11 00:40:32;;;;;;;;;18.33;16.33;;;;;20.58;51.24;101411.34;5039604;28;46500;-67
2023/10/11 00:42:58;;;;;;;;;17.67;14.67;;;;;20.60;51.08;101409.53;5039804;28;45341;-66
2023/10/11 00:45:30;;;;;;;;;17.00;13.33;;;;;20.59;51.16;101407.75;5039750;28;45541;-66
2023/10/11 00:47:56;;;;;;;;;23.00;19.00;;;;;20.53;51.10;101398.16;5040221;28;45472;-66
2023/10/11 00:50:23;;;;;;;;;23.33;17.33;;;;;20.48;51.35;101405.41;5029682;28;45466;-66
2023/10/11 00:52:50;;;;;;;;;17.67;14.00;;;;;20.45;51.48;101412.56;5026905;28;45410;-66
2023/10/11 00:55:21;;;;;;;;;19.67;16.67;;;;;20.41;51.71;101402.97;5039293;28;45452;-66
2023/10/11 00:57:48;;;;;;;;;19.67;16.00;;;;;20.36;51.61;101392.44;5035202;28;45331;-67
2023/10/11 01:00:21;;;;;;;;;17.00;15.33;;;;;20.37;51.33;101395.97;5041041;28;46220;-66
2023/10/11 01:02:48;;;;;;;;;21.33;17.33;;;;;20.36;51.66;101389.78;5024676;28;45318;-66
2023/10/11 01:05:17;;;;;;;;;19.00;16.00;;;;;20.29;52.39;101381.09;5024943;28;45429;-65
2023/10/11 01:07:44;;;;;;;;;19.00;16.67;;;;;20.27;52.09;101379.41;5033568;28;45414;-65
2023/10/11 01:10:11;;;;;;;;;20.33;17.00;;;;;20.23;52.06;101383.06;5035990;28;45452;-65
2023/10/11 01:12:39;;;;;;;;;21.67;16.67;;;;;20.17;52.14;101380.56;5027964;28;45492;-64
2023/10/11 01:15:11;;;;;;;;;21.67;19.00;;;;;20.09;52.51;101375.44;5033319;28;45422;-67
2023/10/11 01:17:38;;;;;;;;;21.00;16.33;;;;;19.94;52.44;101351.94;5027302;28;45362;-67
2023/10/11 01:20:13;;;;;;;;;26.00;17.67;;;;;20.00;52.33;101373.91;5019040;28;46214;-66
2023/10/11 01:22:44;;;;;;;;;17.67;17.00;;;;;19.91;52.57;101377.69;5044092;28;45542;-65
2023/10/11 01:25:20;;;;;;;;;19.33;16.00;;;;;19.92;52.59;101366.13;5027823;28;45533;-66
2023/10/11 01:27:47;;;;;;;;;24.00;17.33;;;;;19.92;52.42;101367.94;5026590;28;45483;-68
2023/10/11 01:30:13;;;;;;;;;22.67;18.67;;;;;19.89;52.49;101363.56;5026932;28;47646;-65
2023/10/11 01:32:42;;;;;;;;;21.67;16.67;;;;;19.74;53.03;101356.00;5019548;28;45399;-66
2023/10/11 01:35:21;;;;;;;;;24.67;17.33;;;;;19.56;53.11;101349.34;5021126;28;45397;-65
2023/10/11 01:38:09;;;;;;;;;15.67;11.00;;;;;19.62;53.31;101357.19;5038434;28;45567;-66
2023/10/11 01:41:42;;;;;;;;;16.33;15.00;;;;;19.56;53.37;101351.16;5027460;28;46096;-66
2023/10/11 01:44:11;;;;;;;;;17.00;15.00;;;;;19.53;53.35;101352.09;5007109;28;45627;-65
2023/10/11 01:47:06;;;;;;;;;;;;;;;;;;;;;
2023/10/11 01:49:39;;;;;;;;;22.33;16.33;;;;;19.26;53.66;101322.63;5037900;28;62660;-66
2023/10/11 01:52:06;;;;;;;;;24.00;17.33;;;;;19.32;53.83;101337.56;5038369;28;46480;-66
2023/10/11 01:54:34;;;;;;;;;16.00;14.33;;;;;19.37;53.57;101335.66;5037926;28;45484;-66
2023/10/11 01:57:01;;;;;;;;;17.33;14.00;;;;;19.44;53.45;101337.25;5036860;28;45461;-67
2023/10/11 01:59:27;;;;;;;;;15.33;15.33;;;;;19.48;53.43;101333.63;5024891;28;45276;-66
2023/10/11 02:02:02;;;;;;;;;18.67;15.00;;;;;19.47;53.33;101323.00;5018787;28;45879;-66
2023/10/11 02:04:29;;;;;;;;;19.00;16.00;;;;;19.53;53.02;101329.94;5018619;28;45575;-64
2023/10/11 02:06:55;;;;;;;;;22.67;17.00;;;;;19.39;53.50;101322.34;5018129;28;45263;-67
2023/10/11 02:09:21;;;;;;;;;22.00;20.33;;;;;19.25;53.88;101328.00;5018442;28;45388;-66
2023/10/11 02:11:52;;;;;;;;;21.33;19.33;;;;;19.15;53.80;101326.47;5023588;28;45678;-67
2023/10/11 02:14:21;;;;;;;;;22.67;16.33;;;;;19.19;53.94;101330.78;5018789;28;45509;-66
2023/10/11 02:16:48;;;;;;;;;20.33;18.67;;;;;19.07;54.19;101322.19;5018251;28;45624;-65
2023/10/11 02:19:15;;;;;;;;;18.67;15.00;;;;;19.02;54.16;101317.94;5018431;28;45453;-66
2023/10/11 02:21:44;;;;;;;;;16.33;13.67;;;;;19.00;54.15;101314.44;5030658;28;45534;-65
2023/10/11 02:24:15;;;;;;;;;17.67;14.67;;;;;19.06;53.96;101315.16;5038060;28;45424;-66
2023/10/11 02:26:49;;;;;;;;;17.67;15.00;;;;;18.98;54.02;101295.91;5038562;28;45465;-66
2023/10/11 02:29:20;;;;;;;;;17.00;17.00;;;;;19.18;53.77;101311.34;5038002;28;45563;-66
2023/10/11 02:31:52;;;;;;;;;10.33;9.33;;;;;19.20;53.67;101311.31;5036457;28;45600;-66
2023/10/11 02:34:19;;;;;;;;;19.33;16.67;;;;;19.16;53.51;101314.94;5038959;28;45401;-68
2023/10/11 02:36:56;;;;;;;;;15.33;14.67;;;;;19.06;53.89;101307.19;5039156;28;45463;-66
2023/10/11 02:39:31;;;;;;;;;14.33;14.33;;;;;18.97;53.72;101291.50;5038307;28;45373;-66
2023/10/11 02:41:57;;;;;;;;;17.67;15.33;;;;;18.80;54.13;101283.06;5038201;28;46166;-66
2023/10/11 02:44:23;;;;;;;;;19.00;17.67;;;;;18.81;54.14;101306.91;5037664;28;45426;-66
2023/10/11 02:46:50;;;;;;;;;18.67;15.33;;;;;18.75;54.59;101312.31;5054363;28;45505;-66
2023/10/11 02:49:21;;;;;;;;;21.33;14.00;;;;;18.66;54.69;101307.22;5037464;28;45465;-67
2023/10/11 02:52:05;;;;;;;;;20.00;18.00;;;;;18.53;54.77;101296.03;5037041;28;45995;-65
2023/10/11 02:54:38;;;;;;;;;17.33;16.00;;;;;18.43;54.52;101289.16;5037632;28;45475;-66
2023/10/11 02:57:09;;;;;;;;;19.33;16.00;;;;;18.44;54.66;101309.47;5037836;28;45456;-66
2023/10/11 02:59:35;;;;;;;;;16.00;13.00;;;;;18.62;54.54;101321.44;5037795;28;45324;-66
2023/10/11 03:02:00;;;;;;;;;17.67;12.67;;;;;18.69;54.35;101327.50;5037386;28;46305;-65
2023/10/11 03:04:29;;;;;;;;;25.67;18.33;;;;;18.55;54.67;101326.00;5037126;28;45519;-67
2023/10/11 03:06:55;;;;;;;;;18.67;15.33;;;;;18.52;55.42;101328.75;5037364;28;45374;-66
2023/10/11 03:09:26;;;;;;;;;21.33;15.33;;;;;18.58;54.78;101333.94;5037369;28;45498;-68
2023/10/11 03:11:52;;;;;;;;;19.00;15.00;;;;;18.51;54.77;101313.75;5050455;28;47635;-66
2023/10/11 03:14:20;;;;;;;;;17.33;13.00;;;;;18.63;54.85;101326.75;5049394;28;45410;-66
2023/10/11 03:16:55;;;;;;;;;17.33;12.67;;;;;18.65;55.05;101316.97;5037312;28;45492;-66
2023/10/11 03:19:22;;;;;;;;;18.33;16.33;;;;;18.56;54.76;101324.25;5044758;28;45250;-66
2023/10/11 03:21:53;;;;;;;;;22.67;17.67;;;;;18.51;55.09;101315.50;5030567;28;45406;-65
2023/10/11 03:24:24;;;;;;;;;17.00;15.33;;;;;18.45;55.13;101308.56;5036763;28;45350;-66
2023/10/11 03:26:51;;;;;;;;;20.00;16.00;;;;;18.42;55.22;101312.16;5036915;28;45439;-66
2023/10/11 03:29:21;;;;;;;;;21.33;19.00;;;;;18.35;55.46;101309.69;5036782;28;45463;-66
2023/10/11 03:31:47;;;;;;;;;25.00;17.33;;;;;18.27;55.76;101311.59;5036324;28;45625;-66
2023/10/11 03:34:17;;;;;;;;;25.00;16.67;;;;;18.20;55.85;101303.78;5033068;28;45747;-66
2023/10/11 03:36:53;;;;;;;;;15.00;13.67;;;;;18.28;56.07;101305.41;5043012;28;45473;-67
2023/10/11 03:42:07;;;;;;;;;20.33;17.67;;;;;18.17;56.52;101311.78;5036438;28;46203;-66
2023/10/11 03:44:40;;;;;;;;;17.67;15.67;;;;;18.14;56.04;101309.19;5036369;28;45362;-66
2023/10/11 03:47:08;;;;;;;;;17.33;16.00;;;;;18.16;56.01;101299.44;5036684;28;45295;-67
2023/10/11 03:52:51;;;;;;;;;17.33;16.33;;;;;18.13;56.06;101296.00;5037697;28;46008;-66
2023/10/11 03:55:09;;;;;;;;;18.67;14.33;;;;;18.13;56.12;101285.41;5033719;28;45559;-66
2023/10/11 03:57:41;;;;;;;;;18.33;18.33;;;;;18.09;56.08;101281.91;5036116;28;45449;-65
2023/10/11 04:00:24;;;;;;;;;22.33;19.33;;;;;18.02;56.08;101273.22;5037179;28;45392;-66
2023/10/11 04:02:58;;;;;;;;;18.67;16.00;;;;;18.10;55.96;101288.94;5037270;28;45474;-65
2023/10/11 04:05:28;;;;;;;;;18.33;16.67;;;;;18.11;56.17;101287.19;5036208;28;45513;-65
2023/10/11 04:07:55;;;;;;;;;20.33;15.33;;;;;18.15;55.67;101280.91;5036092;28;45313;-66
2023/10/11 04:10:38;;;;;;;;;17.00;12.33;;;;;18.12;55.40;101281.84;5035744;28;45542;-66
2023/10/11 04:13:08;;;;;;;;;23.33;18.00;;;;;18.11;55.63;101281.91;5037254;28;45387;-65
2023/10/11 04:15:34;;;;;;;;;16.67;14.00;;;;;18.05;55.95;101282.88;5037552;28;45334;-65
2023/10/11 04:18:05;;;;;;;;;20.67;17.67;;;;;17.92;55.70;101265.50;5036431;28;45360;-67
2023/10/11 04:20:33;;;;;;;;;18.33;16.67;;;;;17.96;55.77;101285.72;5022843;28;45315;-64
2023/10/11 04:23:10;;;;;;;;;17.00;13.00;;;;;17.98;55.51;101279.47;5036889;28;45499;-66
2023/10/11 04:25:37;;;;;;;;;18.33;12.67;;;;;17.89;55.90;101270.84;5036075;28;45450;-66
2023/10/11 04:28:05;;;;;;;;;14.67;14.67;;;;;17.88;56.03;101292.94;5052335;28;45379;-65
2023/10/11 04:30:46;;;;;;;;;14.00;10.67;;;;;17.81;56.02;101294.84;5037662;28;45505;-66
2023/10/11 04:33:20;;;;;;;;;21.33;16.67;;;;;17.69;56.03;101274.72;5035810;28;46235;-66
2023/10/11 04:35:56;;;;;;;;;21.67;14.00;;;;;17.72;56.30;101281.72;5036106;28;45365;-65
2023/10/11 04:38:22;;;;;;;;;15.33;15.33;;;;;17.74;55.88;101286.09;5035969;28;45416;-65
2023/10/11 04:40:53;;;;;;;;;16.33;12.67;;;;;17.83;56.04;101294.81;5050144;28;45511;-66
2023/10/11 04:43:26;;;;;;;;;16.67;12.67;;;;;17.70;56.03;101286.19;5037470;28;47070;-67
2023/10/11 04:45:55;;;;;;;;;18.67;14.33;;;;;17.74;56.40;101296.69;5037232;28;45409;-66
2023/10/11 04:48:39;;;;;;;;;17.67;16.67;;;;;17.63;56.57;101287.19;5036541;28;45302;-67
2023/10/11 04:51:21;;;;;;;;;24.00;16.33;;;;;17.46;56.84;101272.47;5036000;28;45539;-67
2023/10/11 04:59:08;;;;;;;;;14.67;13.00;;;;;17.51;56.80;101286.53;5029124;28;45219;-66
2023/10/11 05:04:14;;;;;;;;;15.33;14.33;;;;;17.80;56.64;101327.50;5036843;28;46195;-67
2023/10/11 05:06:41;;;;;;;;;21.67;14.00;;;;;17.90;56.15;101318.50;5036797;28;45494;-69
2023/10/11 05:11:50;;;;;;;;;15.00;15.00;;;;;17.93;55.76;101325.53;5040538;28;45436;-67
2023/10/11 05:52:33;;;;;;;;;14.33;11.00;;;;;18.25;53.55;101322.25;5031409;28;45467;-67
2023/10/11 05:54:59;;;;;;;;;15.33;11.33;;;;;18.21;54.49;101323.22;5038715;28;45513;-66
2023/10/11 05:57:27;;;;;;;;;17.67;13.67;;;;;18.08;54.61;101308.44;5037962;28;45525;-66
2023/10/11 06:00:18;;;;;;;;;19.00;15.33;;;;;18.07;54.92;101330.56;5037990;28;45303;-68
2023/10/11 06:02:43;;;;;;;;;20.33;17.00;;;;;17.98;55.15;101323.66;5035919;28;45726;-67
2023/10/11 06:05:14;;;;;;;;;22.67;15.67;;;;;17.87;55.05;101317.69;5039215;28;45520;-69
2023/10/11 06:07:40;;;;;;;;;20.33;19.00;;;;;17.93;54.83;101336.13;5036847;28;46812;-66
2023/10/11 06:10:07;;;;;;;;;17.00;15.67;;;;;17.62;55.22;101283.69;5037597;28;45827;-67
2023/10/11 06:12:33;;;;;;;;;14.00;12.00;;;;;17.85;55.61;101338.06;5039289;28;45355;-67
2023/10/11 06:15:15;;;;;;;;;15.67;13.67;;;;;17.76;55.78;101337.28;5035805;28;45334;-67
2023/10/11 06:17:48;;;;;;;;;21.33;18.67;;;;;17.73;55.64;101339.13;5026161;28;46187;-67
2023/10/11 06:20:27;;;;;;;;;19.33;16.33;;;;;17.73;55.79;101340.00;5034987;28;45536;-67
2023/10/11 06:22:56;;;;;;;;;14.00;11.33;;;;;17.70;55.60;101350.66;5033216;28;45386;-67
2023/10/11 06:25:23;;;;;;;;;16.67;15.33;;;;;17.69;56.01;101353.31;5019695;28;45179;-68
2023/10/11 06:30:25;;;;;;;;;24.33;16.00;;;;;17.79;56.07;101365.50;5023503;28;45520;-67
2023/10/11 06:32:52;;;;;;;;;22.33;17.33;;;;;17.67;56.39;101366.59;5033450;28;45306;-67
2023/10/11 06:35:24;;;;;;;;;19.67;14.33;;;;;17.64;56.64;101357.84;5037396;28;45415;-67
2023/10/11 06:37:53;;;;;;;;;20.33;15.67;;;;;17.66;56.39;101369.28;5021450;28;46587;-68
2023/10/11 06:40:46;;;;;;;;;24.00;16.00;;;;;17.65;55.99;101363.09;5026061;28;45437;-68
2023/10/11 06:43:13;;;;;;;;;21.67;17.00;;;;;17.58;55.77;101343.78;5025117;28;45472;-67
2023/10/11 06:45:41;;;;;;;;;18.67;15.33;;;;;17.66;55.63;101346.31;5032310;28;45498;-66
2023/10/11 06:48:08;;;;;;;;;17.33;16.33;;;;;17.77;55.62;101360.25;5027755;28;45399;-68
2023/10/11 06:50:37;;;;;;;;;21.67;14.00;;;;;17.81;55.37;101337.22;5033483;28;45354;-66
2023/10/11 06:53:08;;;;;;;;;26.33;22.00;;;;;17.90;55.23;101357.41;5029205;28;45517;-66
2023/10/11 06:55:39;;;;;;;;;23.00;18.33;;;;;17.94;54.67;101353.81;5027072;28;45235;-65
2023/10/11 06:58:15;;;;;;;;;22.67;18.33;;;;;17.97;55.15;101359.91;5023609;28;45372;-66
2023/10/11 07:00:45;;;;;;;;;24.00;19.00;;;;;17.95;54.97;101355.53;5027488;28;45430;-68
2023/10/11 07:03:26;;;;;;;;;21.33;18.33;;;;;17.94;55.06;101359.09;5023645;28;45413;-68
2023/10/11 07:05:56;;;;;;;;;16.00;16.00;;;;;17.88;55.18;101349.47;5025253;28;45479;-67
2023/10/11 07:08:32;;;;;;;;;18.67;18.00;;;;;18.01;55.29;101366.03;5021509;28;45389;-67
2023/10/11 07:11:18;;;;;;;;;23.33;17.67;;;;;18.01;55.27;101352.78;5020763;28;45302;-67
2023/10/11 07:13:54;;;;;;;;;26.67;17.67;;;;;17.91;55.43;101352.03;5017946;28;45574;-67
2023/10/11 07:16:21;;;;;;;;;20.00;16.00;;;;;18.07;55.60;101376.50;5042174;28;45550;-67
2023/10/11 07:18:48;;;;;;;;;19.00;16.67;;;;;18.13;55.12;101370.22;5021254;28;45434;-68
2023/10/11 07:21:19;;;;;;;;;25.33;20.33;;;;;18.16;55.13;101365.72;5016589;28;45478;-67
2023/10/11 07:24:33;;;;;;;;;25.33;19.33;;;;;18.22;55.02;101365.63;5028273;28;46327;-67
2023/10/11 07:29:04;;;;;;;;;23.33;17.67;;;;;18.39;54.74;101370.56;5030112;28;45418;-68
2023/10/11 07:31:38;;;;;;;;;23.33;18.00;;;;;18.38;54.58;101375.91;5033706;28;46667;-68
2023/10/11 07:34:09;;;;;;;;;22.67;19.67;;;;;18.33;54.73;101368.03;5033152;28;45464;-68
2023/10/11 07:36:38;;;;;;;;;22.00;17.67;;;;;18.32;54.61;101362.75;5026187;28;45508;-67
2023/10/11 07:39:20;;;;;;;;;21.33;20.67;;;;;18.42;54.39;101380.25;5016204;28;45664;-69
2023/10/11 07:41:51;;;;;;;;;27.67;22.00;;;;;18.42;54.53;101373.16;5016918;28;45544;-67
2023/10/11 07:44:18;;;;;;;;;35.00;24.00;;;;;18.50;54.38;101374.78;5045346;28;45771;-68
2023/10/11 07:46:45;;;;;;;;;24.00;20.33;;;;;18.45;54.71;101366.91;5017068;28;45283;-67
2023/10/11 07:49:22;;;;;;;;;23.33;18.33;;;;;18.49;54.64;101379.22;5016048;28;46886;-68
2023/10/11 07:51:53;;;;;;;;;19.67;18.33;;;;;18.45;54.30;101361.59;5016895;28;45396;-68
2023/10/11 07:54:34;;;;;;;;;24.33;18.67;;;;;18.49;54.38;101363.31;5016684;28;45391;-70
2023/10/11 07:57:02;;;;;;;;;25.67;19.00;;;;;18.61;53.96;101375.44;5026712;28;45445;-68
2023/10/11 07:59:28;;;;;;;;;23.00;19.33;;;;;18.75;53.79;101383.97;5021355;28;46362;-68
2023/10/11 08:01:59;;;;;;;;;18.67;16.33;;;;;18.91;53.30;101378.34;5017399;28;45443;-69
2023/10/11 08:04:29;;;;;;;;;20.67;18.00;;;;;19.09;52.84;101387.69;5016565;28;45430;-66
2023/10/11 08:07:06;;;;;;;;;24.00;18.33;;;;;19.20;52.38;101383.88;5022619;28;45872;-67
2023/10/11 08:10:29;;;;;;;;;20.00;16.33;;;;;19.31;52.09;101380.94;5023575;28;45594;-66
2023/10/11 08:12:23;;;;;;;;;24.00;15.33;;;;;19.51;51.63;101384.94;5019460;28;45493;-68
2023/10/11 08:14:53;;;;;;;;;17.00;17.00;;;;;19.65;50.67;101385.47;5018087;28;45561;-68
2023/10/11 08:17:20;;;;;;;;;17.67;15.67;;;;;19.77;49.90;101379.84;5023467;28;45374;-68
2023/10/11 08:19:48;;;;;;;;;20.00;16.00;;;;;19.82;48.93;101375.28;5020764;28;45540;-69
2023/10/11 08:22:15;;;;;;;;;17.33;10.67;;;;;19.94;47.81;101379.41;5018943;28;45355;-68
2023/10/11 08:24:56;;;;;;;;;17.00;13.67;;;;;19.98;48.31;101374.84;5019087;28;45494;-68
2023/10/11 08:27:27;;;;;;;;;16.00;11.67;;;;;20.06;48.18;101355.13;5027411;28;45430;-69
2023/10/11 08:30:16;;;;;;;;;16.67;13.00;;;;;20.26;47.39;101359.91;5035381;28;46217;-70
2023/10/11 08:32:46;;;;;;;;;16.33;12.67;;;;;20.29;46.91;101341.19;5022748;28;45316;-68
2023/10/11 08:35:17;;;;;;;;;14.00;10.00;;;;;20.53;46.99;101365.34;5024474;28;45472;-67
2023/10/11 08:37:52;;;;;;;;;11.00;9.67;;;;;20.59;45.90;101351.00;5016109;28;45429;-68
2023/10/11 08:40:34;;;;;;;;;13.33;12.00;;;;;20.72;45.16;101344.41;5015825;28;45382;-67
2023/10/11 08:43:01;;;;;;;;;9.33;9.00;;;;;20.83;44.41;101354.72;5019782;28;45428;-67
2023/10/11 08:45:33;;;;;;;;;9.33;8.00;;;;;20.95;44.81;101355.22;5027512;28;45380;-67
2023/10/11 08:48:05;;;;;;;;;10.00;10.00;;;;;21.24;43.78;101353.41;5019711;28;45548;-67
2023/10/11 08:50:37;;;;;;;;;11.33;7.67;;;;;21.48;43.17;101356.22;5019507;28;46301;-68
2023/10/11 08:53:09;;;;;;;;;9.67;8.00;;;;;21.58;41.48;101337.19;5020075;28;45397;-68
2023/10/11 08:55:42;;;;;;;;;13.00;8.33;;;;;21.77;40.80;101353.41;5019294;28;45473;-68
2023/10/11 08:58:23;;;;;;;;;6.67;6.67;;;;;21.83;40.33;101344.34;5045585;28;45609;-68
2023/10/11 09:00:52;;;;;;;;;9.67;7.67;;;;;22.09;39.94;101364.75;5021708;28;46209;-68
2023/10/11 09:03:23;;;;;;;;;6.67;6.67;;;;;22.22;40.44;101362.53;5019033;28;45417;-68
2023/10/11 09:05:58;;;;;;;;;14.00;10.00;;;;;22.38;38.93;101360.19;5019282;28;45312;-69
2023/10/11 09:08:32;;;;;;;;;9.33;8.67;;;;;22.40;39.54;101353.84;5019813;28;45658;-69
2023/10/11 09:13:53;;;;;;;;;12.33;6.33;;;;;22.41;39.72;101363.59;5019854;28;45942;-68
2023/10/11 09:16:37;;;;;;;;;8.00;8.00;;;;;22.57;39.95;101366.56;5034036;28;45545;-68
2023/10/11 09:19:10;;;;;;;;;11.00;9.33;;;;;22.70;39.23;101356.28;5018631;28;45541;-68
2023/10/11 09:21:42;;;;;;;;;10.33;8.00;;;;;22.74;39.20;101349.91;5031654;28;45463;-68
2023/10/11 09:24:25;;;;;;;;;11.33;7.67;;;;;22.83;39.32;101360.22;5055371;28;45449;-69
2023/10/11 09:27:18;;;;;;;;;8.67;8.00;;;;;22.95;39.30;101356.19;5039156;28;45492;-67
2023/10/11 09:29:46;;;;;;;;;7.00;7.00;;;;;23.22;38.93;101354.22;5028471;28;45658;-68
2023/10/11 09:32:13;;;;;;;;;9.00;7.33;;;;;23.41;38.77;101343.63;5038876;28;46561;-67
2023/10/11 09:34:42;;;;;;;;;8.00;8.00;;;;;23.70;38.30;101342.41;5038485;28;45551;-67
2023/10/11 09:37:14;;;;;;;;;10.67;8.67;;;;;23.82;37.69;101333.00;5038432;28;45496;-67
2023/10/11 09:39:43;;;;;;;;;12.33;9.00;;;;;24.04;37.94;101350.81;5039024;28;45382;-68
2023/10/11 09:42:22;;;;;;;;;8.67;7.67;;;;;24.21;37.65;101332.16;5038347;28;45610;-68
2023/10/11 09:44:57;;;;;;;;;8.67;8.67;;;;;24.60;37.41;101330.41;5025695;28;45684;-69
2023/10/11 09:47:31;;;;;;;;;11.00;9.00;;;;;24.79;36.78;101343.81;5038660;28;45451;-67
2023/10/11 09:50:00;;;;;;;;;11.00;8.33;;;;;24.76;36.93;101321.56;5037895;28;45531;-67
2023/10/11 09:52:29;;;;;;;;;8.33;8.33;;;;;25.24;36.85;101327.31;5038757;28;45559;-67
2023/10/11 09:54:56;;;;;;;;;8.33;8.33;;;;;25.70;35.94;101345.56;5037941;28;45718;-70
2023/10/11 09:57:41;;;;;;;;;11.33;9.67;;;;;25.85;35.57;101351.97;5037003;28;45287;-68
2023/10/11 10:00:17;;;;;;;;;8.67;8.33;;;;;26.19;35.69;101346.53;5041540;28;45449;-69
2023/10/11 10:02:50;;;;;;;;;10.50;7.25;;;;;26.73;35.12;101338.25;5038145;28;46309;-68
2023/10/11 10:05:22;;;;;;;;;11.00;8.00;;;;;27.44;34.06;101335.09;5038192;28;45321;-69
2023/10/11 10:07:51;;;;;;;;;10.50;8.75;;;;;28.94;32.52;101337.47;5036964;28;45410;-69
2023/10/11 10:10:27;;;;;;;;;10.50;8.50;;;;;31.26;29.13;101332.00;5038733;28;45635;-68
2023/10/11 10:13:06;;;;;;;;;9.00;7.50;;;;;33.65;25.87;101324.50;5038536;28;45542;-69
2023/10/11 10:15:47;;;;;;;;;10.40;8.00;;;;;34.76;23.92;101326.50;5049930;28;45374;-68
2023/10/11 10:18:19;;;;;;;;;10.40;8.60;;;;;35.70;23.68;101324.13;5034274;28;45508;-68
2023/10/11 10:20:46;;;;;;;;;8.00;6.50;;;;;36.24;22.47;101321.69;5024041;28;45245;-67
2023/10/11 10:23:15;;;;;;;;;7.60;6.20;;;;;36.58;22.68;101323.81;5037835;28;45440;-69
2023/10/11 10:25:48;;;;;;;;;16.20;7.80;;;;;36.33;21.92;101320.78;5037807;28;45306;-67
2023/10/11 10:28:35;;;;;;;;;10.20;8.00;;;;;36.36;22.00;101325.06;5039152;28;45317;-68
2023/10/11 10:31:21;;;;;;;;;8.00;8.00;;;;;36.78;21.86;101309.06;5039373;28;45496;-67
2023/10/11 10:34:05;;;;;;;;;6.60;6.00;;;;;37.76;21.29;101311.81;5036464;28;47803;-68
2023/10/11 10:36:31;;;;;;;;;9.40;7.40;;;;;38.37;20.91;101313.53;5037075;28;45309;-67
2023/10/11 10:39:00;;;;;;;;;9.00;7.80;;;;;38.78;20.20;101301.88;5037775;28;45385;-67
2023/10/11 10:41:33;;;;;;;;;10.20;9.20;;;;;39.20;19.83;101307.25;5037850;28;45508;-67
2023/10/11 10:44:08;;;;;;;;;8.40;6.80;;;;;39.13;19.41;101311.72;5037913;28;46192;-66
2023/10/11 10:46:35;;;;;;;;;5.40;5.40;;;;;39.95;19.12;101299.84;5037827;28;45251;-67
2023/10/11 10:49:02;;;;;;;;;9.80;7.00;;;;;40.40;18.81;101303.78;5038576;28;45385;-68
2023/10/11 10:51:35;;;;;;;;;5.80;5.80;;;;;41.06;18.37;101298.78;5033649;28;45522;-68
2023/10/11 10:54:06;;;;;;;;;8.40;7.00;;;;;41.30;17.46;101279.34;5030791;28;45981;-69
2023/10/11 10:56:32;;;;;;;;;7.60;7.60;;;;;41.40;18.00;101287.31;5038018;28;45291;-66
2023/10/11 10:59:12;;;;;;;;;8.25;6.75;;;;;41.10;17.53;101269.88;5038040;28;45310;-68
2023/10/11 11:01:38;;;;;;;;;7.40;6.40;;;;;40.85;17.87;101288.44;5038707;28;45452;-67
2023/10/11 11:04:07;;;;;;;;;12.40;6.60;;;;;40.93;18.02;101277.38;5039201;28;45551;-67
2023/10/11 11:06:37;;;;;;;;;6.00;5.60;;;;;40.96;18.89;101284.41;5037500;28;45379;-67
2023/10/11 11:09:04;;;;;;;;;8.80;7.00;;;;;41.49;17.57;101274.34;5039043;28;45490;-67
2023/10/11 11:11:35;;;;;;;;;6.80;4.20;;;;;41.52;17.79;101258.31;5038533;28;45462;-67
2023/10/11 11:14:09;;;;;;;;;7.60;6.80;;;;;41.55;17.68;101259.88;5037480;28;45418;-67
2023/10/11 11:16:39;;;;;;;;;8.80;6.40;;;;;41.32;16.97;101266.28;5036692;28;45380;-68
2023/10/11 11:19:16;;;;;;;;;8.60;6.20;;;;;41.10;17.65;101264.38;5033007;28;45506;-67
2023/10/11 11:21:44;;;;;;;;;7.60;6.60;;;;;41.24;17.93;101227.88;5030191;28;45508;-67
2023/10/11 11:24:27;;;;;;;;;10.40;8.80;;;;;41.30;16.73;101249.09;5035473;28;45575;-67
2023/10/11 11:26:54;;;;;;;;;9.20;8.00;;;;;40.31;17.94;101249.97;5037743;28;45208;-68
2023/10/11 11:29:33;;;;;;;;;11.00;8.80;;;;;39.13;18.84;101245.97;5035541;28;45521;-68
2023/10/11 11:32:14;;;;;;;;;11.00;6.80;;;;;39.65;18.74;101241.94;5036424;28;45482;-68
2023/10/11 11:35:10;;;;;;;;;13.40;9.00;;;;;39.20;18.71;101229.66;5037310;28;46513;-67
2023/10/11 11:38:01;;;;;;;;;10.40;9.00;;;;;39.22;18.79;101233.94;5036647;28;45497;-69
2023/10/11 11:40:27;;;;;;;;;11.60;8.80;;;;;39.32;18.67;101236.53;5037093;28;45459;-68
2023/10/11 11:42:53;;;;;;;;;9.00;7.50;;;;;39.37;19.44;101244.28;5036012;28;45639;-67
2023/10/11 11:45:20;;;;;;;;;9.80;7.20;;;;;38.99;19.37;101230.22;5038002;28;46088;-69
2023/10/11 11:47:58;;;;;;;;;13.60;12.80;;;;;38.75;19.38;101245.59;5036555;28;45505;-68
2023/10/11 11:50:33;;;;;;;;;11.80;9.40;;;;;38.47;19.76;101236.81;5036753;28;45446;-68
2023/10/11 11:53:00;;;;;;;;;7.20;7.20;;;;;37.80;20.11;101233.91;5036474;28;45433;-68
2023/10/11 11:55:26;;;;;;;;;13.80;10.20;;;;;37.16;20.60;101230.56;5036607;28;45430;-68
2023/10/11 11:57:53;;;;;;;;;15.50;14.00;;;;;36.48;21.81;101212.00;5036595;28;45337;-68
2023/10/11 12:02:58;;;;;;;;;18.00;16.75;;;;;35.84;22.26;101201.00;5041961;28;45484;-70
2023/10/11 12:05:27;;;;;;;;;13.00;10.00;;;;;35.19;23.58;101195.47;5036246;28;45504;-69
2023/10/11 12:07:58;;;;;;;;;15.00;11.60;;;;;34.47;23.94;101187.69;5035916;28;45521;-68
2023/10/11 12:10:25;;;;;;;;;12.00;10.00;;;;;33.94;24.63;101172.53;5036588;28;45545;-68
2023/10/11 12:12:51;;;;;;;;;17.00;13.50;;;;;33.74;25.04;101175.19;5048692;28;45497;-70
2023/10/11 12:15:20;;;;;;;;;19.50;19.50;;;;;33.65;24.87;101177.84;5036326;28;45446;-67
2023/10/11 12:17:53;;;;;;;;;21.60;21.60;;;;;33.42;25.32;101164.44;5035922;28;45825;-68
2023/10/11 12:20:34;;;;;;;;;10.80;8.40;;;;;33.16;25.19;101170.28;5022726;28;45429;-68
2023/10/11 12:23:08;;;;;;;;;10.00;9.00;;;;;32.65;25.55;101129.47;5033633;28;45387;-68
2023/10/11 12:25:38;;;;;;;;;8.00;8.00;;;;;32.81;25.81;101162.44;5034832;28;45536;-67
2023/10/11 12:28:04;;;;;;;;;8.60;8.60;;;;;32.68;26.17;101162.63;5038147;28;45478;-67
2023/10/11 12:30:33;;;;;;;;;12.20;9.20;;;;;32.45;26.10;101153.69;5036574;28;45442;-67
2023/10/11 12:33:06;;;;;;;;;9.00;9.00;;;;;31.78;26.62;101157.38;5036558;28;45481;-68
2023/10/11 12:35:40;;;;;;;;;10.20;9.00;;;;;31.28;27.21;101162.25;5035803;28;45501;-68
2023/10/11 12:38:06;;;;;;;;;7.60;7.60;;;;;30.58;28.09;101127.97;5036139;28;45494;-67
2023/10/11 12:40:34;;;;;;;;;12.20;8.20;;;;;30.37;28.94;101152.06;5028407;28;45384;-69
2023/10/11 12:43:03;;;;;;;;;9.80;8.20;;;;;30.05;29.15;101140.94;5026764;28;45477;-67